sensor_id;sensor_type;location;lat;lon;timestamp;P1;durP1;ratioP1;P2;durP2;ratioP2
4597;SDS011;62772;48.646;8.906;2022-12-07T00:00:02;22.60;;;9.40;;
4597;SDS011;62772;48.646;8.906;2022-12-07T00:05:05;15.67;;;8.90;;
4597;SDS011;62772;48.646;8.906;2022-12-07T00:10:09;24.90;;;9.77;;
4597;SDS011;62772;48.646;8.906;2022-12-07T00:15:10;16.50;;;9.37;;
4597;SDS011;62772;48.646;8.906;2022-12-07T00:20:11;17.90;;;9.20;;
4597;SDS011;62772;48.646;8.906;2022-12-07T00:25:14;21.90;;;9.47;;
4597;SDS011;62772;48.646;8.906;2022-12-07T00:30:15;16.23;;;9.23;;
4597;SDS011;62772;48.646;8.906;2022-12-07T00:35:16;15.27;;;8.77;;
4597;SDS011;62772;48.646;8.906;2022-12-07T00:40:19;18.83;;;9.43;;
4597;SDS011;62772;48.646;8.906;2022-12-07T00:45:20;21.80;;;9.00;;
4597;SDS011;62772;48.646;8.906;2022-12-07T00:50:21;15.20;;;9.17;;
4597;SDS011;62772;48.646;8.906;2022-12-07T00:55:24;16.20;;;8.80;;
4597;SDS011;62772;48.646;8.906;2022-12-07T01:00:24;14.83;;;8.10;;
4597;SDS011;62772;48.646;8.906;2022-12-07T01:05:25;19.57;;;9.63;;
4597;SDS011;62772;48.646;8.906;2022-12-07T01:10:29;16.13;;;9.10;;
4597;SDS011;62772;48.646;8.906;2022-12-07T01:15:30;15.77;;;8.47;;
4597;SDS011;62772;48.646;8.906;2022-12-07T01:20:31;16.17;;;9.57;;
4597;SDS011;62772;48.646;8.906;2022-12-07T01:25:34;17.80;;;9.53;;
4597;SDS011;62772;48.646;8.906;2022-12-07T01:30:35;22.67;;;9.97;;
4597;SDS011;62772;48.646;8.906;2022-12-07T01:35:36;18.67;;;10.47;;
4597;SDS011;62772;48.646;8.906;2022-12-07T01:40:39;20.60;;;11.10;;
4597;SDS011;62772;48.646;8.906;2022-12-07T01:45:40;20.10;;;10.20;;
4597;SDS011;62772;48.646;8.906;2022-12-07T01:50:42;16.50;;;9.10;;
4597;SDS011;62772;48.646;8.906;2022-12-07T01:55:48;22.17;;;10.07;;
4597;SDS011;62772;48.646;8.906;2022-12-07T02:00:52;18.43;;;9.77;;
4597;SDS011;62772;48.646;8.906;2022-12-07T02:05:52;17.47;;;9.60;;
4597;SDS011;62772;48.646;8.906;2022-12-07T02:10:56;18.97;;;9.80;;
4597;SDS011;62772;48.646;8.906;2022-12-07T02:16:02;15.95;;;9.55;;
4597;SDS011;62772;48.646;8.906;2022-12-07T02:21:14;21.03;;;10.10;;
4597;SDS011;62772;48.646;8.906;2022-12-07T02:32:10;18.40;;;8.70;;
4597;SDS011;62772;48.646;8.906;2022-12-07T02:37:21;18.10;;;9.30;;
4597;SDS011;62772;48.646;8.906;2022-12-07T02:42:33;19.53;;;10.00;;
4597;SDS011;62772;48.646;8.906;2022-12-07T02:47:42;14.27;;;8.10;;
4597;SDS011;62772;48.646;8.906;2022-12-07T02:52:44;14.37;;;7.77;;
4597;SDS011;62772;48.646;8.906;2022-12-07T02:57:54;16.33;;;8.47;;
4597;SDS011;62772;48.646;8.906;2022-12-07T03:03:09;14.40;;;8.10;;
4597;SDS011;62772;48.646;8.906;2022-12-07T03:08:12;14.17;;;7.80;;
4597;SDS011;62772;48.646;8.906;2022-12-07T03:13:22;13.17;;;7.80;;
4597;SDS011;62772;48.646;8.906;2022-12-07T03:18:29;16.00;;;8.20;;
4597;SDS011;62772;48.646;8.906;2022-12-07T03:23:33;15.00;;;8.80;;
4597;SDS011;62772;48.646;8.906;2022-12-07T03:28:38;26.07;;;8.90;;
4597;SDS011;62772;48.646;8.906;2022-12-07T03:33:47;17.57;;;8.90;;
4597;SDS011;62772;48.646;8.906;2022-12-07T03:38:54;19.57;;;9.03;;
4597;SDS011;62772;48.646;8.906;2022-12-07T03:44:01;15.77;;;8.70;;
4597;SDS011;62772;48.646;8.906;2022-12-07T03:49:06;17.93;;;8.90;;
4597;SDS011;62772;48.646;8.906;2022-12-07T03:54:13;14.93;;;9.17;;
4597;SDS011;62772;48.646;8.906;2022-12-07T03:59:17;14.73;;;8.43;;
4597;SDS011;62772;48.646;8.906;2022-12-07T04:04:22;17.77;;;9.77;;
4597;SDS011;62772;48.646;8.906;2022-12-07T04:09:24;16.20;;;8.97;;
4597;SDS011;62772;48.646;8.906;2022-12-07T04:14:25;18.47;;;9.37;;
4597;SDS011;62772;48.646;8.906;2022-12-07T04:19:30;23.40;;;10.03;;
4597;SDS011;62772;48.646;8.906;2022-12-07T04:24:32;20.27;;;10.33;;
4597;SDS011;62772;48.646;8.906;2022-12-07T04:29:33;18.77;;;9.70;;
4597;SDS011;62772;48.646;8.906;2022-12-07T04:34:37;17.07;;;9.30;;
4597;SDS011;62772;48.646;8.906;2022-12-07T04:39:37;18.80;;;9.80;;
4597;SDS011;62772;48.646;8.906;2022-12-07T04:44:38;16.30;;;8.80;;
4597;SDS011;62772;48.646;8.906;2022-12-07T04:49:42;21.37;;;10.67;;
4597;SDS011;62772;48.646;8.906;2022-12-07T04:54:43;19.47;;;9.70;;
4597;SDS011;62772;48.646;8.906;2022-12-07T04:59:43;20.60;;;10.47;;
4597;SDS011;62772;48.646;8.906;2022-12-07T05:04:47;18.90;;;10.20;;
4597;SDS011;62772;48.646;8.906;2022-12-07T05:09:47;20.07;;;9.90;;
4597;SDS011;62772;48.646;8.906;2022-12-07T05:14:48;18.87;;;8.77;;
4597;SDS011;62772;48.646;8.906;2022-12-07T05:19:51;20.90;;;10.17;;
4597;SDS011;62772;48.646;8.906;2022-12-07T05:24:52;16.00;;;9.53;;
4597;SDS011;62772;48.646;8.906;2022-12-07T05:29:53;17.47;;;9.77;;
4597;SDS011;62772;48.646;8.906;2022-12-07T05:34:56;19.37;;;9.20;;
4597;SDS011;62772;48.646;8.906;2022-12-07T05:39:57;17.03;;;9.40;;
4597;SDS011;62772;48.646;8.906;2022-12-07T05:44:58;17.03;;;9.43;;
4597;SDS011;62772;48.646;8.906;2022-12-07T05:50:02;20.00;;;9.97;;
4597;SDS011;62772;48.646;8.906;2022-12-07T05:55:05;25.33;;;11.40;;
4597;SDS011;62772;48.646;8.906;2022-12-07T06:00:07;19.60;;;9.80;;
4597;SDS011;62772;48.646;8.906;2022-12-07T06:05:15;23.17;;;10.83;;
4597;SDS011;62772;48.646;8.906;2022-12-07T06:10:16;17.50;;;9.83;;
4597;SDS011;62772;48.646;8.906;2022-12-07T06:15:17;17.03;;;9.13;;
4597;SDS011;62772;48.646;8.906;2022-12-07T06:20:20;19.33;;;9.83;;
4597;SDS011;62772;48.646;8.906;2022-12-07T06:25:21;20.80;;;10.33;;
4597;SDS011;62772;48.646;8.906;2022-12-07T06:30:21;26.37;;;10.10;;
4597;SDS011;62772;48.646;8.906;2022-12-07T06:35:25;24.47;;;10.97;;
4597;SDS011;62772;48.646;8.906;2022-12-07T06:40:25;29.70;;;13.60;;
4597;SDS011;62772;48.646;8.906;2022-12-07T06:45:26;33.60;;;12.90;;
4597;SDS011;62772;48.646;8.906;2022-12-07T06:50:29;40.17;;;14.63;;
4597;SDS011;62772;48.646;8.906;2022-12-07T06:55:30;42.70;;;14.23;;
4597;SDS011;62772;48.646;8.906;2022-12-07T07:00:31;43.10;;;14.90;;
4597;SDS011;62772;48.646;8.906;2022-12-07T07:05:34;36.53;;;14.40;;
4597;SDS011;62772;48.646;8.906;2022-12-07T07:10:35;28.30;;;13.37;;
4597;SDS011;62772;48.646;8.906;2022-12-07T07:15:37;33.13;;;15.60;;
4597;SDS011;62772;48.646;8.906;2022-12-07T07:20:41;37.87;;;16.13;;
4597;SDS011;62772;48.646;8.906;2022-12-07T07:25:41;36.67;;;17.03;;
4597;SDS011;62772;48.646;8.906;2022-12-07T07:30:42;35.20;;;17.10;;
4597;SDS011;62772;48.646;8.906;2022-12-07T07:35:45;29.50;;;15.00;;
4597;SDS011;62772;48.646;8.906;2022-12-07T07:40:46;32.37;;;15.67;;
4597;SDS011;62772;48.646;8.906;2022-12-07T07:45:47;19.97;;;11.53;;
4597;SDS011;62772;48.646;8.906;2022-12-07T07:50:50;21.80;;;10.70;;
4597;SDS011;62772;48.646;8.906;2022-12-07T07:55:51;20.90;;;11.03;;
4597;SDS011;62772;48.646;8.906;2022-12-07T08:00:52;24.03;;;12.20;;
4597;SDS011;62772;48.646;8.906;2022-12-07T08:05:57;22.03;;;11.50;;
4597;SDS011;62772;48.646;8.906;2022-12-07T08:10:57;21.67;;;10.63;;
4597;SDS011;62772;48.646;8.906;2022-12-07T08:16:03;19.80;;;10.87;;
4597;SDS011;62772;48.646;8.906;2022-12-07T08:21:07;23.70;;;12.33;;
4597;SDS011;62772;48.646;8.906;2022-12-07T08:26:12;23.90;;;11.50;;
4597;SDS011;62772;48.646;8.906;2022-12-07T08:31:15;17.70;;;10.70;;
4597;SDS011;62772;48.646;8.906;2022-12-07T08:36:21;21.60;;;10.40;;
4597;SDS011;62772;48.646;8.906;2022-12-07T08:41:24;21.80;;;10.50;;
4597;SDS011;62772;48.646;8.906;2022-12-07T08:46:25;14.43;;;9.00;;
4597;SDS011;62772;48.646;8.906;2022-12-07T08:51:36;20.10;;;10.63;;
4597;SDS011;62772;48.646;8.906;2022-12-07T08:56:36;11.93;;;7.00;;
4597;SDS011;62772;48.646;8.906;2022-12-07T09:01:38;16.20;;;9.60;;
4597;SDS011;62772;48.646;8.906;2022-12-07T09:06:42;18.03;;;9.17;;
4597;SDS011;62772;48.646;8.906;2022-12-07T09:11:43;15.60;;;8.53;;
4597;SDS011;62772;48.646;8.906;2022-12-07T09:16:45;16.70;;;8.27;;
4597;SDS011;62772;48.646;8.906;2022-12-07T09:21:48;18.13;;;10.10;;
4597;SDS011;62772;48.646;8.906;2022-12-07T09:26:49;20.20;;;9.73;;
4597;SDS011;62772;48.646;8.906;2022-12-07T09:31:50;16.50;;;8.07;;
4597;SDS011;62772;48.646;8.906;2022-12-07T09:36:54;52.87;;;19.03;;
4597;SDS011;62772;48.646;8.906;2022-12-07T09:41:54;16.17;;;9.17;;
4597;SDS011;62772;48.646;8.906;2022-12-07T09:46:57;15.07;;;8.57;;
4597;SDS011;62772;48.646;8.906;2022-12-07T09:52:03;51.97;;;21.80;;
4597;SDS011;62772;48.646;8.906;2022-12-07T09:57:27;20.70;;;9.33;;
4597;SDS011;62772;48.646;8.906;2022-12-07T10:02:34;20.60;;;10.13;;
4597;SDS011;62772;48.646;8.906;2022-12-07T10:07:42;16.10;;;8.40;;
4597;SDS011;62772;48.646;8.906;2022-12-07T10:12:56;14.40;;;8.27;;
4597;SDS011;62772;48.646;8.906;2022-12-07T10:17:59;13.60;;;7.60;;
4597;SDS011;62772;48.646;8.906;2022-12-07T10:23:04;15.80;;;7.50;;
4597;SDS011;62772;48.646;8.906;2022-12-07T10:28:14;14.23;;;8.50;;
4597;SDS011;62772;48.646;8.906;2022-12-07T10:33:30;14.43;;;7.27;;
4597;SDS011;62772;48.646;8.906;2022-12-07T10:38:35;13.00;;;7.40;;
4597;SDS011;62772;48.646;8.906;2022-12-07T10:43:50;14.93;;;8.13;;
4597;SDS011;62772;48.646;8.906;2022-12-07T10:48:54;17.97;;;8.97;;
4597;SDS011;62772;48.646;8.906;2022-12-07T10:54:07;15.90;;;9.07;;
4597;SDS011;62772;48.646;8.906;2022-12-07T11:04:51;13.57;;;7.63;;
4597;SDS011;62772;48.646;8.906;2022-12-07T11:10:04;15.13;;;7.70;;
4597;SDS011;62772;48.646;8.906;2022-12-07T11:15:13;13.83;;;8.40;;
4597;SDS011;62772;48.646;8.906;2022-12-07T11:20:23;14.53;;;7.90;;
4597;SDS011;62772;48.646;8.906;2022-12-07T11:25:37;15.30;;;8.97;;
4597;SDS011;62772;48.646;8.906;2022-12-07T11:30:46;15.77;;;8.57;;
4597;SDS011;62772;48.646;8.906;2022-12-07T11:36:02;15.30;;;8.27;;
4597;SDS011;62772;48.646;8.906;2022-12-07T11:41:13;26.13;;;8.77;;
4597;SDS011;62772;48.646;8.906;2022-12-07T11:46:23;14.13;;;7.90;;
4597;SDS011;62772;48.646;8.906;2022-12-07T11:51:26;17.53;;;8.23;;
4597;SDS011;62772;48.646;8.906;2022-12-07T11:56:33;19.97;;;9.43;;
4597;SDS011;62772;48.646;8.906;2022-12-07T12:01:47;16.27;;;8.97;;
4597;SDS011;62772;48.646;8.906;2022-12-07T12:06:54;22.03;;;9.40;;
4597;SDS011;62772;48.646;8.906;2022-12-07T12:12:08;22.33;;;9.60;;
4597;SDS011;62772;48.646;8.906;2022-12-07T12:17:23;16.03;;;8.60;;
4597;SDS011;62772;48.646;8.906;2022-12-07T12:22:38;16.23;;;8.47;;
4597;SDS011;62772;48.646;8.906;2022-12-07T12:27:44;6.60;;;4.50;;
4597;SDS011;62772;48.646;8.906;2022-12-07T12:32:47;6.10;;;4.13;;
4597;SDS011;62772;48.646;8.906;2022-12-07T12:37:48;7.43;;;4.50;;
4597;SDS011;62772;48.646;8.906;2022-12-07T12:42:55;7.10;;;3.97;;
4597;SDS011;62772;48.646;8.906;2022-12-07T12:47:57;5.27;;;3.23;;
4597;SDS011;62772;48.646;8.906;2022-12-07T12:53:03;5.40;;;3.40;;
4597;SDS011;62772;48.646;8.906;2022-12-07T13:03:33;4.70;;;3.10;;
4597;SDS011;62772;48.646;8.906;2022-12-07T13:08:35;7.00;;;4.50;;
4597;SDS011;62772;48.646;8.906;2022-12-07T13:13:43;5.57;;;3.67;;
4597;SDS011;62772;48.646;8.906;2022-12-07T13:18:44;4.20;;;2.83;;
4597;SDS011;62772;48.646;8.906;2022-12-07T13:23:51;5.03;;;3.40;;
4597;SDS011;62772;48.646;8.906;2022-12-07T13:29:04;7.10;;;3.87;;
4597;SDS011;62772;48.646;8.906;2022-12-07T13:34:30;7.70;;;4.30;;
4597;SDS011;62772;48.646;8.906;2022-12-07T13:39:32;7.57;;;4.73;;
4597;SDS011;62772;48.646;8.906;2022-12-07T13:44:39;10.60;;;5.80;;
4597;SDS011;62772;48.646;8.906;2022-12-07T13:49:46;10.60;;;5.43;;
4597;SDS011;62772;48.646;8.906;2022-12-07T13:54:49;8.40;;;5.47;;
4597;SDS011;62772;48.646;8.906;2022-12-07T13:59:58;8.27;;;4.90;;
4597;SDS011;62772;48.646;8.906;2022-12-07T14:05:07;8.00;;;4.40;;
4597;SDS011;62772;48.646;8.906;2022-12-07T14:10:22;7.90;;;5.30;;
4597;SDS011;62772;48.646;8.906;2022-12-07T14:15:28;8.30;;;4.80;;
4597;SDS011;62772;48.646;8.906;2022-12-07T14:20:32;10.50;;;5.17;;
4597;SDS011;62772;48.646;8.906;2022-12-07T14:25:44;6.40;;;3.50;;
4597;SDS011;62772;48.646;8.906;2022-12-07T14:30:48;5.40;;;3.97;;
4597;SDS011;62772;48.646;8.906;2022-12-07T14:35:49;5.10;;;3.57;;
4597;SDS011;62772;48.646;8.906;2022-12-07T14:40:50;5.67;;;3.60;;
4597;SDS011;62772;48.646;8.906;2022-12-07T14:45:54;7.00;;;4.23;;
4597;SDS011;62772;48.646;8.906;2022-12-07T14:50:56;9.87;;;5.13;;
4597;SDS011;62772;48.646;8.906;2022-12-07T14:55:56;7.93;;;4.90;;
4597;SDS011;62772;48.646;8.906;2022-12-07T15:01:00;11.83;;;6.83;;
4597;SDS011;62772;48.646;8.906;2022-12-07T15:06:01;16.10;;;8.70;;
4597;SDS011;62772;48.646;8.906;2022-12-07T15:11:04;9.97;;;5.67;;
4597;SDS011;62772;48.646;8.906;2022-12-07T15:16:10;7.70;;;5.03;;
4597;SDS011;62772;48.646;8.906;2022-12-07T15:21:13;7.17;;;4.80;;
4597;SDS011;62772;48.646;8.906;2022-12-07T15:26:15;10.17;;;5.70;;
4597;SDS011;62772;48.646;8.906;2022-12-07T15:31:18;10.10;;;5.27;;
4597;SDS011;62772;48.646;8.906;2022-12-07T15:36:21;11.07;;;6.70;;
4597;SDS011;62772;48.646;8.906;2022-12-07T15:41:23;7.67;;;5.13;;
4597;SDS011;62772;48.646;8.906;2022-12-07T15:46:31;7.50;;;4.10;;
4597;SDS011;62772;48.646;8.906;2022-12-07T15:51:32;12.63;;;4.60;;
4597;SDS011;62772;48.646;8.906;2022-12-07T15:56:33;8.50;;;6.00;;
4597;SDS011;62772;48.646;8.906;2022-12-07T16:01:36;12.90;;;7.20;;
4597;SDS011;62772;48.646;8.906;2022-12-07T16:06:37;14.60;;;8.10;;
4597;SDS011;62772;48.646;8.906;2022-12-07T16:11:38;14.57;;;8.00;;
4597;SDS011;62772;48.646;8.906;2022-12-07T16:16:41;25.00;;;10.53;;
4597;SDS011;62772;48.646;8.906;2022-12-07T16:21:42;41.47;;;15.57;;
4597;SDS011;62772;48.646;8.906;2022-12-07T16:26:43;14.93;;;6.87;;
4597;SDS011;62772;48.646;8.906;2022-12-07T16:31:47;12.90;;;7.47;;
4597;SDS011;62772;48.646;8.906;2022-12-07T16:36:48;14.30;;;7.67;;
4597;SDS011;62772;48.646;8.906;2022-12-07T16:41:49;11.43;;;6.87;;
4597;SDS011;62772;48.646;8.906;2022-12-07T16:46:52;18.67;;;9.60;;
4597;SDS011;62772;48.646;8.906;2022-12-07T16:51:53;12.20;;;6.90;;
4597;SDS011;62772;48.646;8.906;2022-12-07T16:56:54;11.00;;;6.70;;
4597;SDS011;62772;48.646;8.906;2022-12-07T17:01:57;13.00;;;7.47;;
4597;SDS011;62772;48.646;8.906;2022-12-07T17:06:58;21.43;;;8.97;;
4597;SDS011;62772;48.646;8.906;2022-12-07T17:11:59;17.10;;;9.37;;
4597;SDS011;62772;48.646;8.906;2022-12-07T17:17:02;23.67;;;11.60;;
4597;SDS011;62772;48.646;8.906;2022-12-07T17:22:04;14.60;;;8.23;;
4597;SDS011;62772;48.646;8.906;2022-12-07T17:27:05;22.70;;;10.80;;
4597;SDS011;62772;48.646;8.906;2022-12-07T17:32:09;18.30;;;10.10;;
4597;SDS011;62772;48.646;8.906;2022-12-07T17:37:10;15.20;;;9.10;;
4597;SDS011;62772;48.646;8.906;2022-12-07T17:42:10;14.53;;;8.40;;
4597;SDS011;62772;48.646;8.906;2022-12-07T17:47:32;15.40;;;8.70;;
4597;SDS011;62772;48.646;8.906;2022-12-07T17:52:33;25.73;;;12.10;;
4597;SDS011;62772;48.646;8.906;2022-12-07T17:57:56;19.10;;;10.43;;
4597;SDS011;62772;48.646;8.906;2022-12-07T18:02:59;36.90;;;18.40;;
4597;SDS011;62772;48.646;8.906;2022-12-07T18:08:00;38.20;;;16.70;;
4597;SDS011;62772;48.646;8.906;2022-12-07T18:13:01;31.83;;;16.97;;
4597;SDS011;62772;48.646;8.906;2022-12-07T18:18:23;42.27;;;20.53;;
4597;SDS011;62772;48.646;8.906;2022-12-07T18:23:24;36.70;;;16.57;;
4597;SDS011;62772;48.646;8.906;2022-12-07T18:28:25;42.97;;;21.63;;
4597;SDS011;62772;48.646;8.906;2022-12-07T18:33:29;39.93;;;19.53;;
4597;SDS011;62772;48.646;8.906;2022-12-07T18:38:30;32.03;;;16.27;;
4597;SDS011;62772;48.646;8.906;2022-12-07T18:43:31;48.97;;;22.67;;
4597;SDS011;62772;48.646;8.906;2022-12-07T18:48:34;33.43;;;16.40;;
4597;SDS011;62772;48.646;8.906;2022-12-07T18:53:35;32.83;;;16.50;;
4597;SDS011;62772;48.646;8.906;2022-12-07T18:58:36;43.87;;;18.80;;
4597;SDS011;62772;48.646;8.906;2022-12-07T19:03:40;35.07;;;18.13;;
4597;SDS011;62772;48.646;8.906;2022-12-07T19:08:40;37.53;;;18.57;;
4597;SDS011;62772;48.646;8.906;2022-12-07T19:13:41;28.33;;;16.03;;
4597;SDS011;62772;48.646;8.906;2022-12-07T19:18:45;35.13;;;18.13;;
4597;SDS011;62772;48.646;8.906;2022-12-07T19:23:45;35.50;;;16.53;;
4597;SDS011;62772;48.646;8.906;2022-12-07T19:28:46;38.17;;;17.13;;
4597;SDS011;62772;48.646;8.906;2022-12-07T19:33:49;29.77;;;14.87;;
4597;SDS011;62772;48.646;8.906;2022-12-07T19:38:50;23.30;;;12.67;;
4597;SDS011;62772;48.646;8.906;2022-12-07T19:43:51;23.17;;;12.27;;
4597;SDS011;62772;48.646;8.906;2022-12-07T19:48:55;28.10;;;11.20;;
4597;SDS011;62772;48.646;8.906;2022-12-07T19:53:56;22.00;;;10.77;;
4597;SDS011;62772;48.646;8.906;2022-12-07T19:58:58;57.87;;;24.63;;
4597;SDS011;62772;48.646;8.906;2022-12-07T20:04:03;48.20;;;24.37;;
4597;SDS011;62772;48.646;8.906;2022-12-07T20:09:05;34.87;;;18.27;;
4597;SDS011;62772;48.646;8.906;2022-12-07T20:14:06;41.27;;;19.23;;
4597;SDS011;62772;48.646;8.906;2022-12-07T20:19:11;27.70;;;15.10;;
4597;SDS011;62772;48.646;8.906;2022-12-07T20:24:13;25.60;;;13.87;;
4597;SDS011;62772;48.646;8.906;2022-12-07T20:29:17;25.20;;;13.03;;
4597;SDS011;62772;48.646;8.906;2022-12-07T20:34:22;28.13;;;14.67;;
4597;SDS011;62772;48.646;8.906;2022-12-07T20:39:25;23.67;;;13.07;;
4597;SDS011;62772;48.646;8.906;2022-12-07T20:44:26;26.73;;;13.60;;
4597;SDS011;62772;48.646;8.906;2022-12-07T20:49:29;24.73;;;12.97;;
4597;SDS011;62772;48.646;8.906;2022-12-07T20:54:30;26.07;;;15.03;;
4597;SDS011;62772;48.646;8.906;2022-12-07T20:59:31;43.53;;;23.10;;
4597;SDS011;62772;48.646;8.906;2022-12-07T21:04:35;29.50;;;17.00;;
4597;SDS011;62772;48.646;8.906;2022-12-07T21:09:37;32.80;;;16.20;;
4597;SDS011;62772;48.646;8.906;2022-12-07T21:14:38;28.93;;;14.57;;
4597;SDS011;62772;48.646;8.906;2022-12-07T21:19:42;25.23;;;13.10;;
4597;SDS011;62772;48.646;8.906;2022-12-07T21:24:43;34.13;;;17.30;;
4597;SDS011;62772;48.646;8.906;2022-12-07T21:29:43;33.83;;;16.93;;
4597;SDS011;62772;48.646;8.906;2022-12-07T21:34:47;32.30;;;16.13;;
4597;SDS011;62772;48.646;8.906;2022-12-07T21:39:48;34.67;;;16.43;;
4597;SDS011;62772;48.646;8.906;2022-12-07T21:44:49;32.50;;;15.20;;
4597;SDS011;62772;48.646;8.906;2022-12-07T21:49:52;38.83;;;17.83;;
4597;SDS011;62772;48.646;8.906;2022-12-07T21:54:53;39.77;;;18.83;;
4597;SDS011;62772;48.646;8.906;2022-12-07T21:59:53;58.20;;;24.80;;
4597;SDS011;62772;48.646;8.906;2022-12-07T22:04:57;70.33;;;24.73;;
4597;SDS011;62772;48.646;8.906;2022-12-07T22:09:58;39.83;;;19.20;;
4597;SDS011;62772;48.646;8.906;2022-12-07T22:14:59;44.27;;;23.17;;
4597;SDS011;62772;48.646;8.906;2022-12-07T22:20:08;29.80;;;14.90;;
4597;SDS011;62772;48.646;8.906;2022-12-07T22:25:10;27.10;;;14.13;;
4597;SDS011;62772;48.646;8.906;2022-12-07T22:30:11;28.87;;;14.50;;
4597;SDS011;62772;48.646;8.906;2022-12-07T22:35:15;31.20;;;14.37;;
4597;SDS011;62772;48.646;8.906;2022-12-07T22:40:17;33.07;;;14.97;;
4597;SDS011;62772;48.646;8.906;2022-12-07T22:45:18;30.63;;;14.03;;
4597;SDS011;62772;48.646;8.906;2022-12-07T22:50:21;27.10;;;14.00;;
4597;SDS011;62772;48.646;8.906;2022-12-07T22:55:22;35.47;;;16.00;;
4597;SDS011;62772;48.646;8.906;2022-12-07T23:00:23;27.53;;;14.60;;
4597;SDS011;62772;48.646;8.906;2022-12-07T23:05:26;39.40;;;15.70;;
4597;SDS011;62772;48.646;8.906;2022-12-07T23:10:28;27.73;;;15.20;;
4597;SDS011;62772;48.646;8.906;2022-12-07T23:15:30;55.80;;;22.67;;
4597;SDS011;62772;48.646;8.906;2022-12-07T23:20:35;39.30;;;18.67;;
4597;SDS011;62772;48.646;8.906;2022-12-07T23:25:36;46.60;;;19.57;;
4597;SDS011;62772;48.646;8.906;2022-12-07T23:30:37;40.13;;;18.13;;
4597;SDS011;62772;48.646;8.906;2022-12-07T23:35:40;32.83;;;15.60;;
4597;SDS011;62772;48.646;8.906;2022-12-07T23:40:41;26.20;;;12.77;;
4597;SDS011;62772;48.646;8.906;2022-12-07T23:45:43;21.67;;;11.00;;
4597;SDS011;62772;48.646;8.906;2022-12-07T23:50:47;25.53;;;11.60;;
4597;SDS011;62772;48.646;8.906;2022-12-07T23:55:48;22.17;;;11.73;;
